Time;durP1;ratioP1;P1;durP2;ratioP2;P2;SDS_P1;SDS_P2;PMS_P1;PMS_P2;Temp;Humidity;BMP_temperature;BMP_pressure;BME280_temperature;BME280_humidity;BME280_pressure;Samples;Min_cycle;Max_cycle;Signal;HPM_P1;HPM_P2
2021/07/10 00:00:37;;;;;;;;;;;14.60;1.00;;;;;;5070175;28;19970;-60
2021/07/10 00:03:04;;;;;;;;;;;14.60;1.00;;;;;;5069401;28;19939;-60
2021/07/10 00:05:29;;;;;;;;;;;14.50;1.00;;;;;;5051442;28;20319;-61
2021/07/10 00:07:55;;;;;;;;;;;14.50;1.00;;;;;;5049640;28;19925;-61
2021/07/10 00:10:21;;;;;;;;;;;14.50;1.00;;;;;;5050269;28;19912;-61
2021/07/10 00:12:46;;;;;;;;;;;14.50;1.00;;;;;;5050294;28;19909;-61
2021/07/10 00:15:13;;;;;;;;;;;14.40;1.00;;;;;;5050317;28;19917;-61
2021/07/10 00:17:39;;;;;;;;;;;14.40;1.00;;;;;;5049004;28;19909;-62
2021/07/10 00:20:05;;;;;;;;;;;14.40;1.00;;;;;;5062846;28;20324;-61
2021/07/10 00:22:31;;;;;;;;;;;14.30;1.00;;;;;;5070161;28;19916;-61
2021/07/10 00:24:56;;;;;;;;;;;14.30;1.00;;;;;;5069863;28;19924;-61
2021/07/10 00:27:22;;;;;;;;;;;14.30;1.00;;;;;;5069187;28;20293;-61
2021/07/10 00:29:47;;;;;;;;;;;14.30;1.00;;;;;;5069033;28;19919;-61
2021/07/10 00:32:14;;;;;;;;;;;14.20;1.00;;;;;;5069274;28;19919;-60
2021/07/10 00:34:40;;;;;;;;;;;14.30;1.00;;;;;;5069719;28;19920;-61
2021/07/10 00:37:05;;;;;;;;;;;14.20;1.00;;;;;;5069433;28;19908;-60
2021/07/10 00:39:31;;;;;;;;;;;14.20;1.00;;;;;;5069226;28;19923;-60
2021/07/10 00:41:56;;;;;;;;;;;14.20;1.00;;;;;;5069378;28;19912;-61
2021/07/10 00:44:22;;;;;;;;;;;14.10;1.00;;;;;;5069562;28;19916;-60
2021/07/10 00:46:47;;;;;;;;;;;14.20;1.00;;;;;;5068528;28;20451;-61
2021/07/10 00:49:13;;;;;;;;;;;14.20;1.00;;;;;;5068478;28;19931;-62
2021/07/10 00:51:38;;;;;;;;;;;14.10;1.00;;;;;;5069247;28;20024;-59
2021/07/10 00:54:04;;;;;;;;;;;14.10;1.00;;;;;;5069337;28;19980;-61
2021/07/10 00:56:29;;;;;;;;;;;14.10;1.00;;;;;;5069277;28;19962;-61
2021/07/10 00:58:55;;;;;;;;;;;14.00;1.00;;;;;;5068359;28;19915;-60
2021/07/10 01:01:20;;;;;;;;;;;14.00;1.00;;;;;;5061533;28;20023;-61
2021/07/10 01:03:46;;;;;;;;;;;13.90;1.00;;;;;;5053018;28;19909;-60
2021/07/10 01:06:12;;;;;;;;;;;13.90;1.00;;;;;;5060297;28;19912;-61
2021/07/10 01:08:38;;;;;;;;;;;13.90;1.00;;;;;;5067965;28;20065;-61
2021/07/10 01:11:04;;;;;;;;;;;13.90;1.00;;;;;;5067873;28;20334;-62
2021/07/10 01:13:30;;;;;;;;;;;13.90;1.00;;;;;;5068364;28;19946;-61
2021/07/10 01:15:56;;;;;;;;;;;13.80;1.00;;;;;;5068461;28;19908;-61
2021/07/10 01:18:21;;;;;;;;;;;13.80;1.00;;;;;;5067333;28;19969;-61
2021/07/10 01:20:48;;;;;;;;;;;13.80;1.00;;;;;;5068282;28;19912;-61
2021/07/10 01:23:14;;;;;;;;;;;13.80;1.00;;;;;;5068653;28;19955;-60
2021/07/10 01:25:39;;;;;;;;;;;13.80;1.00;;;;;;5068290;28;19999;-61
2021/07/10 01:28:07;;;;;;;;;;;13.80;1.00;;;;;;5067889;28;20382;-61
2021/07/10 01:30:34;;;;;;;;;;;13.70;1.00;;;;;;5067653;28;19916;-62
2021/07/10 01:33:00;;;;;;;;;;;13.70;1.00;;;;;;5068281;28;19919;-61
2021/07/10 01:35:25;;;;;;;;;;;13.70;1.00;;;;;;5068239;28;19912;-61
2021/07/10 01:37:51;;;;;;;;;;;13.70;1.00;;;;;;5067876;28;20408;-62
2021/07/10 01:40:18;;;;;;;;;;;13.70;1.00;;;;;;5068679;28;19908;-61
2021/07/10 01:42:44;;;;;;;;;;;13.70;1.00;;;;;;5067481;28;19908;-64
2021/07/10 01:45:10;;;;;;;;;;;13.60;1.00;;;;;;5067950;28;19916;-61
2021/07/10 01:47:35;;;;;;;;;;;13.60;1.00;;;;;;5066985;28;19913;-62
2021/07/10 01:50:02;;;;;;;;;;;13.60;1.00;;;;;;5068293;28;19915;-62
2021/07/10 01:52:27;;;;;;;;;;;13.50;1.00;;;;;;5068259;28;19932;-62
2021/07/10 01:54:53;;;;;;;;;;;13.50;1.00;;;;;;5068679;28;19928;-61
2021/07/10 01:57:19;;;;;;;;;;;13.40;1.00;;;;;;5067035;28;19913;-60
2021/07/10 01:59:45;;;;;;;;;;;13.40;1.00;;;;;;5067996;28;19955;-61
2021/07/10 02:02:10;;;;;;;;;;;13.40;1.00;;;;;;5067621;28;19954;-62
2021/07/10 02:04:50;;;;;;;;;;;13.30;1.00;;;;;;5067699;28;19974;-61
2021/07/10 02:07:16;;;;;;;;;;;13.30;1.00;;;;;;5067295;28;19935;-61
2021/07/10 02:09:41;;;;;;;;;;;13.40;1.00;;;;;;5068539;28;20003;-61
2021/07/10 02:12:07;;;;;;;;;;;13.40;1.00;;;;;;5067866;28;20388;-61
2021/07/10 02:14:33;;;;;;;;;;;13.30;1.00;;;;;;5068083;28;19924;-63
2021/07/10 02:16:59;;;;;;;;;;;13.30;1.00;;;;;;5067355;28;19912;-63
2021/07/10 02:19:24;;;;;;;;;;;13.20;1.00;;;;;;5067208;28;19943;-62
2021/07/10 02:21:49;;;;;;;;;;;13.20;1.00;;;;;;5068189;28;19912;-61
2021/07/10 02:24:16;;;;;;;;;;;13.10;1.00;;;;;;5068380;28;19920;-61
2021/07/10 02:26:41;;;;;;;;;;;13.10;1.00;;;;;;5067596;28;19908;-61
2021/07/10 02:29:07;;;;;;;;;;;13.10;1.00;;;;;;5048810;28;19912;-59
2021/07/10 02:31:35;;;;;;;;;;;13.10;1.00;;;;;;5067121;28;19913;-61
2021/07/10 02:34:01;;;;;;;;;;;13.00;1.00;;;;;;5049544;28;19963;-63
2021/07/10 02:36:27;;;;;;;;;;;12.90;1.00;;;;;;5068235;28;20031;-61
2021/07/10 02:38:53;;;;;;;;;;;12.90;1.00;;;;;;5067699;28;19999;-64
2021/07/10 02:41:18;;;;;;;;;;;12.90;1.00;;;;;;5059002;28;19913;-63
2021/07/10 02:43:44;;;;;;;;;;;12.80;1.00;;;;;;5063814;28;19913;-62
2021/07/10 02:46:09;;;;;;;;;;;12.80;1.00;;;;;;5067417;28;20377;-61
2021/07/10 02:48:35;;;;;;;;;;;12.70;1.00;;;;;;5066477;28;19959;-61
2021/07/10 02:51:00;;;;;;;;;;;12.80;1.00;;;;;;5068247;28;19944;-61
2021/07/10 02:53:26;;;;;;;;;;;12.80;1.00;;;;;;5069893;28;20672;-61
2021/07/10 02:55:51;;;;;;;;;;;12.80;1.00;;;;;;5071335;28;20290;-61
2021/07/10 02:58:17;;;;;;;;;;;12.80;1.00;;;;;;5070711;28;19987;-61
2021/07/10 03:00:42;;;;;;;;;;;12.90;1.00;;;;;;5070759;28;19908;-63
2021/07/10 03:03:08;;;;;;;;;;;12.90;1.00;;;;;;5065081;28;19912;-63
2021/07/10 03:05:34;;;;;;;;;;;12.90;1.00;;;;;;5066255;28;19916;-64
2021/07/10 03:08:00;;;;;;;;;;;12.90;1.00;;;;;;5070993;28;19908;-63
2021/07/10 03:10:27;;;;;;;;;;;13.00;1.00;;;;;;5071243;28;19908;-61
2021/07/10 03:12:53;;;;;;;;;;;13.00;1.00;;;;;;5051689;28;19913;-61
2021/07/10 03:15:18;;;;;;;;;;;13.10;1.00;;;;;;5051195;28;19920;-61
2021/07/10 03:17:44;;;;;;;;;;;13.10;1.00;;;;;;5049761;28;19923;-63
2021/07/10 03:20:11;;;;;;;;;;;13.10;1.00;;;;;;5064762;28;20416;-61
2021/07/10 03:22:36;;;;;;;;;;;13.20;1.00;;;;;;5071026;28;19999;-60
2021/07/10 03:25:03;;;;;;;;;;;13.30;1.00;;;;;;5061191;28;19917;-62
2021/07/10 03:27:29;;;;;;;;;;;13.30;1.00;;;;;;5049525;28;19920;-61
2021/07/10 03:29:54;;;;;;;;;;;13.40;1.00;;;;;;5061974;28;19908;-61
2021/07/10 03:32:20;;;;;;;;;;;13.50;1.00;;;;;;5070742;28;20354;-61
2021/07/10 03:34:45;;;;;;;;;;;13.40;1.00;;;;;;5070770;28;19908;-58
2021/07/10 03:37:11;;;;;;;;;;;13.50;1.00;;;;;;5070663;28;19909;-58
2021/07/10 03:39:36;;;;;;;;;;;13.50;1.00;;;;;;5070462;28;20004;-60
2021/07/10 03:42:02;;;;;;;;;;;13.40;1.00;;;;;;5070376;28;20357;-59
2021/07/10 03:44:27;;;;;;;;;;;13.40;1.00;;;;;;5070868;28;20007;-61
2021/07/10 03:46:53;;;;;;;;;;;13.40;1.00;;;;;;5069644;28;19962;-56
2021/07/10 03:49:18;;;;;;;;;;;13.40;1.00;;;;;;5069739;28;20345;-59
2021/07/10 03:51:44;;;;;;;;;;;13.40;1.00;;;;;;5070524;28;20273;-61
2021/07/10 03:54:09;;;;;;;;;;;13.40;1.00;;;;;;5070759;28;20003;-59
2021/07/10 03:56:35;;;;;;;;;;;13.50;1.00;;;;;;5070046;28;19960;-61
2021/07/10 03:59:00;;;;;;;;;;;13.50;1.00;;;;;;5069614;28;20007;-58
2021/07/10 04:01:26;;;;;;;;;;;13.50;1.00;;;;;;5069917;28;19908;-58
2021/07/10 04:03:51;;;;;;;;;;;13.60;1.00;;;;;;5050996;28;19909;-60
2021/07/10 04:06:17;;;;;;;;;;;13.70;1.00;;;;;;5061941;28;20007;-58
2021/07/10 04:08:42;;;;;;;;;;;13.70;1.00;;;;;;5069721;28;19927;-61
2021/07/10 04:11:10;;;;;;;;;;;13.70;1.00;;;;;;5070281;28;19972;-60
2021/07/10 04:13:35;;;;;;;;;;;13.70;1.00;;;;;;5070450;28;19960;-58
2021/07/10 04:16:01;;;;;;;;;;;13.70;1.00;;;;;;5069715;28;19951;-61
2021/07/10 04:18:27;;;;;;;;;;;13.80;1.00;;;;;;5068700;28;19908;-62
2021/07/10 04:20:52;;;;;;;;;;;13.90;1.00;;;;;;5070071;28;20370;-62
2021/07/10 04:23:18;;;;;;;;;;;13.90;2.50;;;;;;5069671;28;20011;-61
2021/07/10 04:25:43;;;;;;;;;;;14.00;3.40;;;;;;5069061;28;20031;-62
2021/07/10 04:28:09;;;;;;;;;;;14.10;4.50;;;;;;5068946;28;20102;-61
2021/07/10 04:30:34;;;;;;;;;;;14.20;4.90;;;;;;5069067;28;19912;-61
2021/07/10 04:33:00;;;;;;;;;;;14.20;3.50;;;;;;5068841;28;19936;-61
2021/07/10 04:35:25;;;;;;;;;;;14.20;1.50;;;;;;5069593;28;19981;-61
2021/07/10 04:37:51;;;;;;;;;;;14.20;1.10;;;;;;5068793;28;19959;-61
2021/07/10 04:40:16;;;;;;;;;;;14.30;1.70;;;;;;5069850;28;19920;-61
2021/07/10 04:42:42;;;;;;;;;;;14.30;1.00;;;;;;5069187;28;19930;-61
2021/07/10 04:45:08;;;;;;;;;;;14.40;1.00;;;;;;5069042;28;19959;-62
2021/07/10 04:47:34;;;;;;;;;;;14.50;1.00;;;;;;5068083;28;20615;-62
2021/07/10 04:50:00;;;;;;;;;;;14.50;1.00;;;;;;5069037;28;19909;-61
2021/07/10 04:52:25;;;;;;;;;;;14.50;1.00;;;;;;5069209;28;19916;-62
2021/07/10 04:54:51;;;;;;;;;;;14.50;1.00;;;;;;5069418;28;19912;-62
2021/07/10 04:57:16;;;;;;;;;;;14.50;1.00;;;;;;5067798;28;19912;-62
2021/07/10 04:59:42;;;;;;;;;;;14.50;1.00;;;;;;5069237;28;20332;-62
2021/07/10 05:02:07;;;;;;;;;;;14.60;1.00;;;;;;5068790;28;19942;-60
2021/07/10 05:04:33;;;;;;;;;;;14.60;1.00;;;;;;5057818;28;19974;-60
2021/07/10 05:06:58;;;;;;;;;;;14.70;1.00;;;;;;5049114;28;19909;-61
2021/07/10 05:09:24;;;;;;;;;;;14.70;1.00;;;;;;5049094;28;19909;-62
2021/07/10 05:11:49;;;;;;;;;;;14.80;1.00;;;;;;5049007;28;19913;-63
2021/07/10 05:14:15;;;;;;;;;;;14.60;1.00;;;;;;5049430;28;19917;-62
2021/07/10 05:16:40;;;;;;;;;;;14.60;1.00;;;;;;5048389;28;20400;-63
2021/07/10 05:19:06;;;;;;;;;;;14.60;1.00;;;;;;5052594;28;19912;-62
2021/07/10 05:21:32;;;;;;;;;;;14.70;1.00;;;;;;5069073;28;19916;-63
2021/07/10 05:23:58;;;;;;;;;;;14.80;1.00;;;;;;5069108;28;19912;-64
2021/07/10 05:26:23;;;;;;;;;;;14.90;1.00;;;;;;5068395;28;19977;-63
2021/07/10 05:28:49;;;;;;;;;;;15.00;1.00;;;;;;5050013;28;19916;-62
2021/07/10 05:31:14;;;;;;;;;;;15.10;1.00;;;;;;5068810;28;20392;-61
2021/07/10 05:33:40;;;;;;;;;;;15.20;1.00;;;;;;5068150;28;20432;-62
2021/07/10 05:36:06;;;;;;;;;;;15.40;1.00;;;;;;5068700;28;20475;-62
2021/07/10 05:38:31;;;;;;;;;;;15.40;1.00;;;;;;5068384;28;19908;-60
2021/07/10 05:40:57;;;;;;;;;;;15.50;1.00;;;;;;5062834;28;20010;-61
2021/07/10 05:43:23;;;;;;;;;;;15.70;1.00;;;;;;5059729;28;19955;-61
2021/07/10 05:45:51;;;;;;;;;;;15.80;1.00;;;;;;5068519;28;19928;-61
2021/07/10 05:48:16;;;;;;;;;;;15.90;1.00;;;;;;5067305;28;20027;-60
2021/07/10 05:50:42;;;;;;;;;;;16.10;1.00;;;;;;5067969;28;20011;-62
2021/07/10 05:53:08;;;;;;;;;;;16.40;1.00;;;;;;5068180;28;19912;-63
2021/07/10 05:55:34;;;;;;;;;;;16.50;1.00;;;;;;5067897;28;20273;-63
2021/07/10 05:57:59;;;;;;;;;;;16.60;1.00;;;;;;5067704;28;19920;-63
2021/07/10 06:00:25;;;;;;;;;;;16.70;1.00;;;;;;5057475;28;20352;-61
2021/07/10 06:02:50;;;;;;;;;;;16.70;1.00;;;;;;5047925;28;19916;-63
2021/07/10 06:05:16;;;;;;;;;;;16.60;1.00;;;;;;5065859;28;20270;-63
2021/07/10 06:07:41;;;;;;;;;;;16.80;1.00;;;;;;5067344;28;20090;-63
2021/07/10 06:10:08;;;;;;;;;;;16.70;1.00;;;;;;5068740;28;19913;-63
2021/07/10 06:12:34;;;;;;;;;;;16.50;1.00;;;;;;5068174;28;20324;-63
2021/07/10 06:14:59;;;;;;;;;;;16.60;1.00;;;;;;5067817;28;19917;-63
2021/07/10 06:17:26;;;;;;;;;;;16.80;1.00;;;;;;5067025;28;19909;-63
2021/07/10 06:19:55;;;;;;;;;;;17.10;1.00;;;;;;5067325;28;19913;-63
2021/07/10 06:22:20;;;;;;;;;;;17.40;1.00;;;;;;5068053;28;19927;-61
2021/07/10 06:24:46;;;;;;;;;;;17.50;99.90;;;;;;5062045;28;19922;-63
2021/07/10 06:27:11;;;;;;;;;;;17.50;99.90;;;;;;5067329;28;19959;-64
2021/07/10 06:29:38;;;;;;;;;;;17.50;99.90;;;;;;5071615;28;20298;-64
2021/07/10 06:32:04;;;;;;;;;;;17.50;99.90;;;;;;5067549;28;19959;-64
2021/07/10 06:34:29;;;;;;;;;;;17.40;99.90;;;;;;5060425;28;19951;-63
2021/07/10 06:36:55;;;;;;;;;;;17.50;99.90;;;;;;5061211;28;19931;-63
2021/07/10 06:39:20;;;;;;;;;;;17.60;99.90;;;;;;5061362;28;19944;-63
2021/07/10 06:41:46;;;;;;;;;;;17.70;99.90;;;;;;5059405;28;19909;-62
2021/07/10 06:44:12;;;;;;;;;;;17.90;99.90;;;;;;5061496;28;19984;-62
2021/07/10 06:46:37;;;;;;;;;;;17.90;1.00;;;;;;5060521;28;20431;-62
2021/07/10 06:49:03;;;;;;;;;;;18.00;1.00;;;;;;5059006;28;19909;-62
2021/07/10 06:51:29;;;;;;;;;;;18.10;1.00;;;;;;5062042;28;19914;-63
2021/07/10 06:53:54;;;;;;;;;;;18.30;1.00;;;;;;5066811;28;19914;-62
2021/07/10 06:56:20;;;;;;;;;;;18.30;1.00;;;;;;5059864;28;19994;-61
2021/07/10 06:58:45;;;;;;;;;;;18.50;99.90;;;;;;5061296;28;19912;-61
2021/07/10 07:01:11;;;;;;;;;;;18.60;1.00;;;;;;5059510;28;19908;-62
2021/07/10 07:03:37;;;;;;;;;;;18.60;1.00;;;;;;5061747;28;19927;-62
2021/07/10 07:06:02;;;;;;;;;;;19.10;1.00;;;;;;5060652;28;20412;-62
2021/07/10 07:08:28;;;;;;;;;;;19.50;99.90;;;;;;5061158;28;19988;-62
2021/07/10 07:10:53;;;;;;;;;;;19.80;1.00;;;;;;5060100;28;19913;-62
2021/07/10 07:13:19;;;;;;;;;;;20.20;99.90;;;;;;5059699;28;19978;-62
2021/07/10 07:15:44;;;;;;;;;;;20.20;1.00;;;;;;5061080;28;19909;-60
2021/07/10 07:18:11;;;;;;;;;;;20.20;1.00;;;;;;5058577;28;19916;-62
2021/07/10 07:20:36;;;;;;;;;;;20.50;1.00;;;;;;5061380;28;19913;-63
2021/07/10 07:23:02;;;;;;;;;;;20.70;1.00;;;;;;5051757;28;19973;-62
2021/07/10 07:25:28;;;;;;;;;;;20.70;99.90;;;;;;5064468;28;19916;-64
2021/07/10 07:27:53;;;;;;;;;;;20.50;99.90;;;;;;5070646;28;19912;-66
2021/07/10 07:30:19;;;;;;;;;;;21.00;99.90;;;;;;5071397;28;20005;-63
2021/07/10 07:32:45;;;;;;;;;;;21.90;66.20;;;;;;5071117;28;20011;-65
2021/07/10 07:35:12;;;;;;;;;;;22.10;1.00;;;;;;5071523;28;19928;-64
2021/07/10 07:37:37;;;;;;;;;;;22.40;1.00;;;;;;5070385;28;20365;-65
2021/07/10 07:40:04;;;;;;;;;;;23.50;1.00;;;;;;5070051;28;19913;-64
2021/07/10 07:42:30;;;;;;;;;;;24.80;1.00;;;;;;5070949;28;20281;-64
2021/07/10 07:44:55;;;;;;;;;;;25.50;1.00;;;;;;5070579;28;19912;-63
2021/07/10 07:47:21;;;;;;;;;;;25.70;99.90;;;;;;5070303;28;19917;-64
2021/07/10 07:49:47;;;;;;;;;;;25.60;99.90;;;;;;5070565;28;20452;-63
2021/07/10 07:52:12;;;;;;;;;;;25.50;99.90;;;;;;5071494;28;19913;-64
2021/07/10 07:54:38;;;;;;;;;;;26.40;99.90;;;;;;5071071;28;19912;-64
2021/07/10 07:57:04;;;;;;;;;;;28.50;99.90;;;;;;5070525;28;19931;-64
2021/07/10 07:59:30;;;;;;;;;;;29.80;99.90;;;;;;5070330;28;19912;-64
2021/07/10 08:01:55;;;;;;;;;;;30.30;99.90;;;;;;5070085;28;19913;-64
2021/07/10 08:04:21;;;;;;;;;;;31.20;99.90;;;;;;5060762;28;19923;-64
2021/07/10 08:06:47;;;;;;;;;;;31.20;99.90;;;;;;5051016;28;19920;-65
2021/07/10 08:09:12;;;;;;;;;;;32.20;99.90;;;;;;5048119;28;20012;-63
2021/07/10 08:11:38;;;;;;;;;;;32.80;99.90;;;;;;5062349;28;20376;-65
2021/07/10 08:14:03;;;;;;;;;;;33.80;99.90;;;;;;5067467;28;20020;-65
2021/07/10 08:16:29;;;;;;;;;;;33.10;99.90;;;;;;5069678;28;19908;-66
2021/07/10 08:18:54;;;;;;;;;;;33.90;99.90;;;;;;5068104;28;19916;-65
2021/07/10 08:21:20;;;;;;;;;;;35.20;99.90;;;;;;5070436;28;19908;-66
2021/07/10 08:23:45;;;;;;;;;;;35.60;99.90;;;;;;5068604;28;19916;-65
2021/07/10 08:26:11;;;;;;;;;;;36.00;99.90;;;;;;5049796;28;19916;-65
2021/07/10 08:28:36;;;;;;;;;;;37.10;99.90;;;;;;5046859;28;19920;-64
2021/07/10 08:31:03;;;;;;;;;;;37.00;99.90;;;;;;5069194;28;19908;-64
2021/07/10 08:33:28;;;;;;;;;;;36.10;99.90;;;;;;5068335;28;19982;-64
2021/07/10 08:35:54;;;;;;;;;;;36.30;99.90;;;;;;5059947;28;19912;-63
2021/07/10 08:38:19;;;;;;;;;;;36.60;99.90;;;;;;5048857;28;19916;-64
2021/07/10 08:40:45;;;;;;;;;;;36.90;99.90;;;;;;5061915;28;19912;-65
2021/07/10 08:43:11;;;;;;;;;;;36.40;99.90;;;;;;5061205;28;19908;-65
2021/07/10 08:45:37;;;;;;;;;;;36.40;99.90;;;;;;5069808;28;19964;-64
2021/07/10 08:48:03;;;;;;;;;;;36.60;99.90;;;;;;5066526;28;20748;-64
2021/07/10 08:50:29;;;;;;;;;;;37.50;99.90;;;;;;5068991;28;19958;-64
2021/07/10 08:52:55;;;;;;;;;;;38.40;99.90;;;;;;5068958;28;20349;-64
2021/07/10 08:55:20;;;;;;;;;;;38.70;99.90;;;;;;5069376;28;20400;-65
2021/07/10 08:57:46;;;;;;;;;;;39.60;99.90;;;;;;5067948;28;19924;-65
2021/07/10 09:00:16;;;;;;;;;;;40.60;99.90;;;;;;5068882;28;19913;-63
2021/07/10 09:02:43;;;;;;;;;;;40.70;99.90;;;;;;5068646;28;20018;-64
2021/07/10 09:05:09;;;;;;;;;;;39.60;99.90;;;;;;5052851;28;19919;-63
2021/07/10 09:07:58;;;;;;;;;;;39.50;99.90;;;;;;5048182;28;20043;-63
2021/07/10 09:10:34;;;;;;;;;;;38.00;99.90;;;;;;5011034;28;19909;-63
2021/07/10 09:12:59;;;;;;;;;;;36.60;99.90;;;;;;5067400;28;19997;-63
2021/07/10 09:15:25;;;;;;;;;;;37.40;99.90;;;;;;5064717;28;20016;-64
2021/07/10 09:17:50;;;;;;;;;;;37.20;99.90;;;;;;5063121;28;19920;-64
2021/07/10 09:20:23;;;;;;;;;;;36.70;99.90;;;;;;5064232;28;20262;-64
2021/07/10 09:22:49;;;;;;;;;;;37.10;99.90;;;;;;5064046;28;19920;-64
2021/07/10 09:25:26;;;;;;;;;;;37.20;99.90;;;;;;5064635;28;20278;-64
2021/07/10 09:27:52;;;;;;;;;;;37.30;99.90;;;;;;5054173;28;19997;-64
2021/07/10 09:30:29;;;;;;;;;;;37.50;99.90;;;;;;5061454;28;20238;-66
2021/07/10 09:33:13;;;;;;;;;;;37.60;99.90;;;;;;5059890;28;19913;-65
2021/07/10 09:35:58;;;;;;;;;;;37.20;99.90;;;;;;5044273;28;19995;-66
2021/07/10 09:38:25;;;;;;;;;;;37.10;99.90;;;;;;5044242;28;20050;-65
2021/07/10 09:41:10;;;;;;;;;;;36.80;99.90;;;;;;5045012;28;19921;-66
2021/07/10 09:43:36;;;;;;;;;;;37.60;99.90;;;;;;5045141;28;20323;-65
2021/07/10 09:46:04;;;;;;;;;;;39.10;99.90;;;;;;5057178;28;19915;-66
2021/07/10 09:48:31;;;;;;;;;;;39.00;99.90;;;;;;5062568;28;19917;-66
2021/07/10 09:51:15;;;;;;;;;;;38.00;99.90;;;;;;5064422;28;19996;-65
2021/07/10 09:53:40;;;;;;;;;;;37.60;99.90;;;;;;5064594;28;19958;-65
2021/07/10 09:56:10;;;;;;;;;;;37.50;99.90;;;;;;5064565;28;19921;-66
2021/07/10 09:58:35;;;;;;;;;;;37.90;99.90;;;;;;5052377;28;19919;-65
2021/07/10 10:01:20;;;;;;;;;;;38.20;99.90;;;;;;5044898;28;19913;-64
2021/07/10 10:03:45;;;;;;;;;;;39.20;99.90;;;;;;5043710;28;19944;-65
2021/07/10 10:06:26;;;;;;;;;;;39.90;99.90;;;;;;5060546;28;19984;-63
2021/07/10 10:08:52;;;;;;;;;;;40.30;99.90;;;;;;5043433;28;19909;-64
2021/07/10 10:11:18;;;;;;;;;;;40.00;99.90;;;;;;5047971;28;19909;-64
2021/07/10 10:13:43;;;;;;;;;;;39.40;99.90;;;;;;5065357;28;20002;-64
2021/07/10 10:16:15;;;;;;;;;;;39.50;99.90;;;;;;5065285;28;19974;-66
2021/07/10 10:18:42;;;;;;;;;;;40.10;99.90;;;;;;5062439;28;19994;-64
2021/07/10 10:21:08;;;;;;;;;;;40.20;99.90;;;;;;5064632;28;19915;-64
2021/07/10 10:23:34;;;;;;;;;;;40.30;99.90;;;;;;5043297;28;19995;-64
2021/07/10 10:25:59;;;;;;;;;;;39.50;98.70;;;;;;5054351;28;19973;-63
2021/07/10 10:28:25;;;;;;;;;;;39.50;99.90;;;;;;5064294;28;19908;-64
2021/07/10 10:30:56;;;;;;;;;;;39.40;97.30;;;;;;5051044;28;19921;-63
2021/07/10 10:33:22;;;;;;;;;;;39.50;97.50;;;;;;5043524;28;20079;-63
2021/07/10 10:35:50;;;;;;;;;;;38.70;95.40;;;;;;5047762;28;20392;-63
2021/07/10 10:38:16;;;;;;;;;;;37.40;99.90;;;;;;5047562;28;20411;-63
2021/07/10 10:40:42;;;;;;;;;;;36.10;99.90;;;;;;5052759;28;20035;-63
2021/07/10 10:43:08;;;;;;;;;;;36.10;99.90;;;;;;5054542;28;20019;-63
2021/07/10 10:45:34;;;;;;;;;;;;;;;;;;5050250;28;20361;-62
2021/07/10 10:47:59;;;;;;;;;;;35.70;80.90;;;;;;5046134;28;19921;-63
2021/07/10 10:50:34;;;;;;;;;;;35.70;93.50;;;;;;5047952;28;19952;-62
2021/07/10 10:52:59;;;;;;;;;;;36.10;93.90;;;;;;5048305;28;19912;-64
2021/07/10 10:55:27;;;;;;;;;;;37.20;94.80;;;;;;5048238;28;20161;-63
2021/07/10 10:57:53;;;;;;;;;;;37.60;95.70;;;;;;5047169;28;19912;-63
2021/07/10 11:00:24;;;;;;;;;;;37.80;93.20;;;;;;5047932;28;19938;-62
2021/07/10 11:02:50;;;;;;;;;;;;;;;;;;5047342;28;19974;-62
2021/07/10 11:05:32;;;;;;;;;;;32.50;70.30;;;;;;5064802;28;19913;-62
2021/07/10 11:08:16;;;;;;;;;;;33.20;92.90;;;;;;5066699;28;20326;-61
2021/07/10 11:10:41;;;;;;;;;;;33.10;94.80;;;;;;5067015;28;19950;-65
2021/07/10 11:13:25;;;;;;;;;;;32.40;94.50;;;;;;5067060;28;20003;-63
2021/07/10 11:16:02;;;;;;;;;;;32.60;95.40;;;;;;5071186;28;19959;-63
2021/07/10 11:18:28;;;;;;;;;;;33.30;97.10;;;;;;5068772;28;19923;-62
2021/07/10 11:20:54;;;;;;;;;;;32.20;97.50;;;;;;5070898;28;20007;-63
2021/07/10 11:23:32;;;;;;;;;;;31.80;98.40;;;;;;5071025;28;19992;-63
2021/07/10 11:26:19;;;;;;;;;;;31.80;99.90;;;;;;5070577;28;19913;-63
2021/07/10 11:28:47;;;;;;;;;;;32.40;99.90;;;;;;5052122;28;19969;-63
2021/07/10 11:31:17;;;;;;;;;;;33.50;99.90;;;;;;5070069;28;19913;-63
2021/07/10 11:34:01;;;;;;;;;;;33.40;99.90;;;;;;5059295;28;20011;-63
2021/07/10 11:36:45;;;;;;;;;;;33.10;99.90;;;;;;5051330;28;20293;-63
2021/07/10 11:39:23;;;;;;;;;;;32.80;99.90;;;;;;5050807;28;19935;-63
2021/07/10 11:41:49;;;;;;;;;;;33.00;99.90;;;;;;5059081;28;20023;-63
2021/07/10 11:44:18;;;;;;;;;;;33.20;99.90;;;;;;5070774;28;20019;-63
2021/07/10 11:46:55;;;;;;;;;;;32.80;99.90;;;;;;5062453;28;19937;-63
2021/07/10 11:49:53;;;;;;;;;;;32.30;99.90;;;;;;5055361;28;20066;-65
2021/07/10 11:52:19;;;;;;;;;;;32.00;99.90;;;;;;5025512;28;19915;-63
2021/07/10 11:54:46;;;;;;;;;;;31.70;99.90;;;;;;5070832;28;19916;-63
2021/07/10 11:57:11;;;;;;;;;;;31.50;99.90;;;;;;5070012;28;19923;-62
2021/07/10 11:59:38;;;;;;;;;;;31.80;99.90;;;;;;5070246;28;19919;-62
2021/07/10 12:02:16;;;;;;;;;;;31.90;99.90;;;;;;5069416;28;20385;-62
2021/07/10 12:04:57;;;;;;;;;;;31.70;99.90;;;;;;5057199;28;19913;-62
2021/07/10 12:07:23;;;;;;;;;;;31.70;99.90;;;;;;5050046;28;20234;-62
2021/07/10 12:09:50;;;;;;;;;;;30.80;99.90;;;;;;5050372;28;19909;-62
2021/07/10 12:12:15;;;;;;;;;;;30.00;99.90;;;;;;5061900;28;20273;-62
2021/07/10 12:14:48;;;;;;;;;;;28.90;99.90;;;;;;5070260;28;19916;-62
2021/07/10 12:17:14;;;;;;;;;;;28.70;99.90;;;;;;5069296;28;19924;-62
2021/07/10 12:19:39;;;;;;;;;;;28.70;99.90;;;;;;5069318;28;20393;-62
2021/07/10 12:22:06;;;;;;;;;;;28.50;99.90;;;;;;5070169;28;19909;-62
2021/07/10 12:24:31;;;;;;;;;;;28.00;99.90;;;;;;5070143;28;19912;-62
2021/07/10 12:27:05;;;;;;;;;;;27.50;99.90;;;;;;5054880;28;20326;-63
2021/07/10 12:29:30;;;;;;;;;;;27.40;99.90;;;;;;5049483;28;19909;-63
2021/07/10 12:31:56;;;;;;;;;;;27.20;99.90;;;;;;5048961;28;20024;-62
2021/07/10 12:34:21;;;;;;;;;;;26.70;99.90;;;;;;5050100;28;19919;-63
2021/07/10 12:36:47;;;;;;;;;;;26.50;99.90;;;;;;5050029;28;19921;-62
2021/07/10 12:39:14;;;;;;;;;;;26.20;99.90;;;;;;5049369;28;19927;-62
2021/07/10 12:42:00;;;;;;;;;;;26.00;99.90;;;;;;5049646;28;20325;-62
2021/07/10 12:44:31;;;;;;;;;;;25.80;99.90;;;;;;5049681;28;20010;-62
2021/07/10 12:46:59;;;;;;;;;;;25.60;99.90;;;;;;5048885;28;19913;-63
2021/07/10 12:49:26;;;;;;;;;;;25.40;99.90;;;;;;5048534;28;19908;-63
2021/07/10 12:51:52;;;;;;;;;;;25.60;99.90;;;;;;5049587;28;19913;-63
2021/07/10 12:54:38;;;;;;;;;;;25.80;99.90;;;;;;5049837;28;19924;-62
2021/07/10 12:57:15;;;;;;;;;;;25.70;99.90;;;;;;5049345;28;19913;-63
2021/07/10 12:59:47;;;;;;;;;;;25.90;99.90;;;;;;5049582;28;19969;-62
2021/07/10 13:02:20;;;;;;;;;;;26.30;99.90;;;;;;5048809;28;19995;-63
2021/07/10 13:04:45;;;;;;;;;;;26.00;99.90;;;;;;5053729;28;20000;-62
2021/07/10 13:07:11;;;;;;;;;;;26.00;99.90;;;;;;5057528;28;19931;-62
2021/07/10 13:09:37;;;;;;;;;;;26.00;99.90;;;;;;5049301;28;20354;-62
2021/07/10 13:12:03;;;;;;;;;;;25.90;99.90;;;;;;5059351;28;19909;-62
2021/07/10 13:14:28;;;;;;;;;;;26.00;99.90;;;;;;5069106;28;19943;-61
2021/07/10 13:16:54;;;;;;;;;;;26.10;99.90;;;;;;5068279;28;19912;-62
2021/07/10 13:19:31;;;;;;;;;;;26.20;99.90;;;;;;5067581;28;19935;-62
2021/07/10 13:21:57;;;;;;;;;;;26.20;99.90;;;;;;5068736;28;20613;-62
2021/07/10 13:24:22;;;;;;;;;;;26.40;99.90;;;;;;5065016;28;19913;-62
2021/07/10 13:26:53;;;;;;;;;;;26.30;99.90;;;;;;5061624;28;20000;-62
2021/07/10 13:29:21;;;;;;;;;;;26.10;99.90;;;;;;5068566;28;20000;-64
2021/07/10 13:31:59;;;;;;;;;;;26.20;99.90;;;;;;5063931;28;19939;-63
2021/07/10 13:34:26;;;;;;;;;;;26.40;99.90;;;;;;5047602;28;19920;-63
2021/07/10 13:36:52;;;;;;;;;;;26.30;99.90;;;;;;5047826;28;19943;-64
2021/07/10 13:39:19;;;;;;;;;;;26.00;99.90;;;;;;5047083;28;19909;-64
2021/07/10 13:41:47;;;;;;;;;;;25.80;99.90;;;;;;5048364;28;19909;-64
2021/07/10 13:44:14;;;;;;;;;;;25.80;99.90;;;;;;5048016;28;19909;-62
2021/07/10 13:46:47;;;;;;;;;;;25.80;99.90;;;;;;5047660;28;19920;-63
2021/07/10 13:49:20;;;;;;;;;;;25.90;99.90;;;;;;5047693;28;20261;-64
2021/07/10 13:51:47;;;;;;;;;;;25.90;99.90;;;;;;5048019;28;20257;-63
2021/07/10 13:54:26;;;;;;;;;;;25.60;99.90;;;;;;5048864;28;19974;-62
2021/07/10 13:57:07;;;;;;;;;;;25.50;99.90;;;;;;5047790;28;19917;-65
2021/07/10 13:59:32;;;;;;;;;;;25.50;99.90;;;;;;5055973;28;19912;-65
2021/07/10 14:01:58;;;;;;;;;;;25.80;99.90;;;;;;5068107;28;19938;-64
2021/07/10 14:04:23;;;;;;;;;;;26.00;99.90;;;;;;5058272;28;19913;-62
2021/07/10 14:06:49;;;;;;;;;;;25.90;99.90;;;;;;5048555;28;19912;-62
2021/07/10 14:09:15;;;;;;;;;;;25.60;99.90;;;;;;5064966;28;19913;-62
2021/07/10 14:11:41;;;;;;;;;;;25.50;99.90;;;;;;5060514;28;19913;-62
2021/07/10 14:14:06;;;;;;;;;;;25.40;99.90;;;;;;5048184;28;20412;-62
2021/07/10 14:16:33;;;;;;;;;;;25.50;99.90;;;;;;5058951;28;19920;-62
2021/07/10 14:18:59;;;;;;;;;;;25.80;99.90;;;;;;5066931;28;19908;-62
2021/07/10 14:21:24;;;;;;;;;;;25.90;99.90;;;;;;5068628;28;19977;-62
2021/07/10 14:23:50;;;;;;;;;;;26.10;99.90;;;;;;5068269;28;19908;-62